sensor_id;sensor_type;location;lat;lon;timestamp;P1;durP1;ratioP1;P2;durP2;ratioP2
8594;SDS011;4335;48.860;9.198;2024-03-06T00:01:17;5.40;;;4.50;;
8594;SDS011;4335;48.860;9.198;2024-03-06T00:03:44;6.13;;;4.23;;
8594;SDS011;4335;48.860;9.198;2024-03-06T00:06:18;5.07;;;4.57;;
8594;SDS011;4335;48.860;9.198;2024-03-06T00:08:46;4.40;;;4.00;;
8594;SDS011;4335;48.860;9.198;2024-03-06T00:11:13;7.07;;;4.03;;
8594;SDS011;4335;48.860;9.198;2024-03-06T00:13:41;5.30;;;4.13;;
8594;SDS011;4335;48.860;9.198;2024-03-06T00:16:20;6.33;;;3.60;;
8594;SDS011;4335;48.860;9.198;2024-03-06T00:18:55;4.60;;;3.33;;
8594;SDS011;4335;48.860;9.198;2024-03-06T00:21:24;3.67;;;3.23;;
8594;SDS011;4335;48.860;9.198;2024-03-06T00:23:55;5.00;;;3.40;;
8594;SDS011;4335;48.860;9.198;2024-03-06T00:26:25;10.00;;;5.47;;
8594;SDS011;4335;48.860;9.198;2024-03-06T00:28:55;6.93;;;4.27;;
8594;SDS011;4335;48.860;9.198;2024-03-06T00:31:22;4.43;;;4.03;;
8594;SDS011;4335;48.860;9.198;2024-03-06T00:33:59;5.13;;;3.87;;
8594;SDS011;4335;48.860;9.198;2024-03-06T00:36:31;4.83;;;3.47;;
8594;SDS011;4335;48.860;9.198;2024-03-06T00:38:58;5.63;;;3.27;;
8594;SDS011;4335;48.860;9.198;2024-03-06T00:41:29;3.47;;;3.10;;
8594;SDS011;4335;48.860;9.198;2024-03-06T00:43:57;4.00;;;3.20;;
8594;SDS011;4335;48.860;9.198;2024-03-06T00:46:24;3.03;;;2.70;;
8594;SDS011;4335;48.860;9.198;2024-03-06T00:48:52;5.07;;;3.30;;
8594;SDS011;4335;48.860;9.198;2024-03-06T00:51:19;6.07;;;3.63;;
8594;SDS011;4335;48.860;9.198;2024-03-06T00:53:48;4.93;;;3.43;;
8594;SDS011;4335;48.860;9.198;2024-03-06T00:56:15;4.03;;;3.23;;
8594;SDS011;4335;48.860;9.198;2024-03-06T00:58:42;4.43;;;3.00;;
8594;SDS011;4335;48.860;9.198;2024-03-06T01:01:13;3.97;;;3.57;;
8594;SDS011;4335;48.860;9.198;2024-03-06T01:03:42;4.17;;;3.50;;
8594;SDS011;4335;48.860;9.198;2024-03-06T01:06:13;3.67;;;3.37;;
8594;SDS011;4335;48.860;9.198;2024-03-06T01:08:40;4.83;;;3.80;;
8594;SDS011;4335;48.860;9.198;2024-03-06T01:11:11;4.93;;;3.70;;
8594;SDS011;4335;48.860;9.198;2024-03-06T01:13:39;6.43;;;4.37;;
8594;SDS011;4335;48.860;9.198;2024-03-06T01:16:16;5.50;;;3.60;;
8594;SDS011;4335;48.860;9.198;2024-03-06T01:18:46;4.07;;;3.50;;
8594;SDS011;4335;48.860;9.198;2024-03-06T01:21:17;4.73;;;3.43;;
8594;SDS011;4335;48.860;9.198;2024-03-06T01:23:47;4.93;;;4.20;;
8594;SDS011;4335;48.860;9.198;2024-03-06T01:26:16;6.43;;;4.43;;
8594;SDS011;4335;48.860;9.198;2024-03-06T01:28:43;7.60;;;4.30;;
8594;SDS011;4335;48.860;9.198;2024-03-06T01:31:14;5.90;;;4.40;;
8594;SDS011;4335;48.860;9.198;2024-03-06T01:33:41;4.30;;;3.90;;
8594;SDS011;4335;48.860;9.198;2024-03-06T01:36:21;6.53;;;3.93;;
8594;SDS011;4335;48.860;9.198;2024-03-06T01:38:51;4.97;;;3.30;;
8594;SDS011;4335;48.860;9.198;2024-03-06T01:41:30;3.70;;;3.40;;
8594;SDS011;4335;48.860;9.198;2024-03-06T01:43:57;4.00;;;3.30;;
8594;SDS011;4335;48.860;9.198;2024-03-06T01:46:24;3.73;;;3.30;;
8594;SDS011;4335;48.860;9.198;2024-03-06T01:48:54;4.53;;;3.50;;
8594;SDS011;4335;48.860;9.198;2024-03-06T01:51:22;3.50;;;3.20;;
8594;SDS011;4335;48.860;9.198;2024-03-06T01:53:50;3.80;;;3.50;;
8594;SDS011;4335;48.860;9.198;2024-03-06T01:56:18;4.20;;;3.87;;
8594;SDS011;4335;48.860;9.198;2024-03-06T01:58:47;4.33;;;3.90;;
8594;SDS011;4335;48.860;9.198;2024-03-06T02:01:18;3.97;;;3.37;;
8594;SDS011;4335;48.860;9.198;2024-03-06T02:03:49;5.17;;;3.77;;
8594;SDS011;4335;48.860;9.198;2024-03-06T02:06:17;5.93;;;3.30;;
8594;SDS011;4335;48.860;9.198;2024-03-06T02:08:49;4.17;;;3.80;;
8594;SDS011;4335;48.860;9.198;2024-03-06T02:11:16;4.87;;;3.67;;
8594;SDS011;4335;48.860;9.198;2024-03-06T02:13:54;3.97;;;3.43;;
8594;SDS011;4335;48.860;9.198;2024-03-06T02:16:22;4.43;;;4.03;;
8594;SDS011;4335;48.860;9.198;2024-03-06T02:18:55;5.33;;;3.53;;
8594;SDS011;4335;48.860;9.198;2024-03-06T02:21:27;4.07;;;3.67;;
8594;SDS011;4335;48.860;9.198;2024-03-06T02:23:54;3.80;;;3.40;;
8594;SDS011;4335;48.860;9.198;2024-03-06T02:26:21;3.83;;;3.43;;
8594;SDS011;4335;48.860;9.198;2024-03-06T02:28:49;4.70;;;3.00;;
8594;SDS011;4335;48.860;9.198;2024-03-06T02:31:18;4.17;;;3.30;;
8594;SDS011;4335;48.860;9.198;2024-03-06T02:33:47;4.60;;;4.13;;
8594;SDS011;4335;48.860;9.198;2024-03-06T02:36:18;5.03;;;4.17;;
8594;SDS011;4335;48.860;9.198;2024-03-06T02:38:50;3.30;;;3.00;;
8594;SDS011;4335;48.860;9.198;2024-03-06T02:41:17;3.53;;;3.23;;
8594;SDS011;4335;48.860;9.198;2024-03-06T02:43:45;4.30;;;3.10;;
8594;SDS011;4335;48.860;9.198;2024-03-06T02:46:18;4.00;;;3.03;;
8594;SDS011;4335;48.860;9.198;2024-03-06T02:48:45;3.63;;;3.33;;
8594;SDS011;4335;48.860;9.198;2024-03-06T02:51:17;5.07;;;3.30;;
8594;SDS011;4335;48.860;9.198;2024-03-06T02:53:45;5.63;;;3.33;;
8594;SDS011;4335;48.860;9.198;2024-03-06T02:56:17;5.13;;;3.40;;
8594;SDS011;4335;48.860;9.198;2024-03-06T02:58:44;3.27;;;2.97;;
8594;SDS011;4335;48.860;9.198;2024-03-06T03:01:13;4.70;;;3.10;;
8594;SDS011;4335;48.860;9.198;2024-03-06T03:03:41;5.20;;;3.10;;
8594;SDS011;4335;48.860;9.198;2024-03-06T03:06:15;5.03;;;3.00;;
8594;SDS011;4335;48.860;9.198;2024-03-06T03:08:42;4.23;;;3.77;;
8594;SDS011;4335;48.860;9.198;2024-03-06T03:11:10;3.83;;;3.03;;
8594;SDS011;4335;48.860;9.198;2024-03-06T03:13:48;5.03;;;3.33;;
8594;SDS011;4335;48.860;9.198;2024-03-06T03:16:16;5.20;;;3.70;;
8594;SDS011;4335;48.860;9.198;2024-03-06T03:18:44;6.20;;;3.97;;
8594;SDS011;4335;48.860;9.198;2024-03-06T03:21:14;4.97;;;3.97;;
8594;SDS011;4335;48.860;9.198;2024-03-06T03:23:45;3.67;;;3.37;;
8594;SDS011;4335;48.860;9.198;2024-03-06T03:26:12;4.60;;;3.77;;
8594;SDS011;4335;48.860;9.198;2024-03-06T03:28:45;6.17;;;3.97;;
8594;SDS011;4335;48.860;9.198;2024-03-06T03:31:14;4.47;;;3.20;;
8594;SDS011;4335;48.860;9.198;2024-03-06T03:33:42;4.87;;;3.70;;
8594;SDS011;4335;48.860;9.198;2024-03-06T03:36:15;4.87;;;3.87;;
8594;SDS011;4335;48.860;9.198;2024-03-06T03:38:48;4.67;;;3.80;;
8594;SDS011;4335;48.860;9.198;2024-03-06T03:41:16;4.43;;;3.90;;
8594;SDS011;4335;48.860;9.198;2024-03-06T03:43:43;5.03;;;4.40;;
8594;SDS011;4335;48.860;9.198;2024-03-06T03:46:11;4.73;;;4.07;;
8594;SDS011;4335;48.860;9.198;2024-03-06T03:48:40;5.27;;;4.07;;
8594;SDS011;4335;48.860;9.198;2024-03-06T03:51:08;5.10;;;4.50;;
8594;SDS011;4335;48.860;9.198;2024-03-06T03:53:39;4.50;;;3.80;;
8594;SDS011;4335;48.860;9.198;2024-03-06T03:56:06;4.47;;;3.30;;
8594;SDS011;4335;48.860;9.198;2024-03-06T03:58:39;5.20;;;3.60;;
8594;SDS011;4335;48.860;9.198;2024-03-06T04:01:12;6.63;;;3.90;;
8594;SDS011;4335;48.860;9.198;2024-03-06T04:03:41;5.50;;;4.00;;
8594;SDS011;4335;48.860;9.198;2024-03-06T04:06:09;4.43;;;3.57;;
8594;SDS011;4335;48.860;9.198;2024-03-06T04:08:39;5.10;;;3.50;;
8594;SDS011;4335;48.860;9.198;2024-03-06T04:11:06;4.17;;;3.27;;
8594;SDS011;4335;48.860;9.198;2024-03-06T04:13:37;5.80;;;3.57;;
8594;SDS011;4335;48.860;9.198;2024-03-06T04:16:05;4.30;;;3.90;;
8594;SDS011;4335;48.860;9.198;2024-03-06T04:18:33;4.57;;;3.70;;
8594;SDS011;4335;48.860;9.198;2024-03-06T04:21:03;5.23;;;4.20;;
8594;SDS011;4335;48.860;9.198;2024-03-06T04:23:31;4.13;;;3.20;;
8594;SDS011;4335;48.860;9.198;2024-03-06T04:26:03;7.37;;;3.80;;
8594;SDS011;4335;48.860;9.198;2024-03-06T04:28:33;5.17;;;3.97;;
8594;SDS011;4335;48.860;9.198;2024-03-06T04:31:01;7.30;;;3.50;;
8594;SDS011;4335;48.860;9.198;2024-03-06T04:33:28;6.87;;;3.93;;
8594;SDS011;4335;48.860;9.198;2024-03-06T04:35:55;5.07;;;3.27;;
8594;SDS011;4335;48.860;9.198;2024-03-06T04:38:27;3.83;;;3.23;;
8594;SDS011;4335;48.860;9.198;2024-03-06T04:40:57;5.47;;;3.60;;
8594;SDS011;4335;48.860;9.198;2024-03-06T04:43:27;4.90;;;3.93;;
8594;SDS011;4335;48.860;9.198;2024-03-06T04:45:55;5.03;;;3.83;;
8594;SDS011;4335;48.860;9.198;2024-03-06T04:48:22;6.50;;;3.27;;
8594;SDS011;4335;48.860;9.198;2024-03-06T04:51:01;3.40;;;3.10;;
8594;SDS011;4335;48.860;9.198;2024-03-06T04:53:30;3.93;;;3.50;;
8594;SDS011;4335;48.860;9.198;2024-03-06T04:56:01;4.33;;;3.43;;
8594;SDS011;4335;48.860;9.198;2024-03-06T04:58:28;4.73;;;3.97;;
8594;SDS011;4335;48.860;9.198;2024-03-06T05:00:56;7.27;;;3.70;;
8594;SDS011;4335;48.860;9.198;2024-03-06T05:03:23;4.97;;;3.63;;
8594;SDS011;4335;48.860;9.198;2024-03-06T05:05:57;4.57;;;3.67;;
8594;SDS011;4335;48.860;9.198;2024-03-06T05:08:27;5.93;;;3.53;;
8594;SDS011;4335;48.860;9.198;2024-03-06T05:10:56;7.17;;;4.23;;
8594;SDS011;4335;48.860;9.198;2024-03-06T05:13:31;5.40;;;3.93;;
8594;SDS011;4335;48.860;9.198;2024-03-06T05:15:59;4.50;;;3.73;;
8594;SDS011;4335;48.860;9.198;2024-03-06T05:18:28;6.07;;;3.87;;
8594;SDS011;4335;48.860;9.198;2024-03-06T05:20:55;5.73;;;4.37;;
8594;SDS011;4335;48.860;9.198;2024-03-06T05:23:23;7.20;;;3.87;;
8594;SDS011;4335;48.860;9.198;2024-03-06T05:25:50;6.73;;;4.87;;
8594;SDS011;4335;48.860;9.198;2024-03-06T05:28:19;6.10;;;4.33;;
8594;SDS011;4335;48.860;9.198;2024-03-06T05:30:46;6.07;;;4.10;;
8594;SDS011;4335;48.860;9.198;2024-03-06T05:33:14;7.37;;;5.40;;
8594;SDS011;4335;48.860;9.198;2024-03-06T05:35:41;6.67;;;5.40;;
8594;SDS011;4335;48.860;9.198;2024-03-06T05:38:09;5.37;;;4.27;;
8594;SDS011;4335;48.860;9.198;2024-03-06T05:40:36;5.33;;;3.83;;
8594;SDS011;4335;48.860;9.198;2024-03-06T05:43:05;5.10;;;3.83;;
8594;SDS011;4335;48.860;9.198;2024-03-06T05:45:34;5.03;;;3.80;;
8594;SDS011;4335;48.860;9.198;2024-03-06T05:48:05;5.87;;;3.80;;
8594;SDS011;4335;48.860;9.198;2024-03-06T05:50:36;6.17;;;3.80;;
8594;SDS011;4335;48.860;9.198;2024-03-06T05:53:16;5.07;;;3.53;;
8594;SDS011;4335;48.860;9.198;2024-03-06T05:55:50;4.93;;;3.60;;
8594;SDS011;4335;48.860;9.198;2024-03-06T05:58:20;8.67;;;4.70;;
8594;SDS011;4335;48.860;9.198;2024-03-06T06:00:53;5.67;;;4.13;;
8594;SDS011;4335;48.860;9.198;2024-03-06T06:03:27;5.30;;;3.77;;
8594;SDS011;4335;48.860;9.198;2024-03-06T06:05:57;3.83;;;3.47;;
8594;SDS011;4335;48.860;9.198;2024-03-06T06:08:25;6.43;;;4.07;;
8594;SDS011;4335;48.860;9.198;2024-03-06T06:10:55;7.67;;;3.83;;
8594;SDS011;4335;48.860;9.198;2024-03-06T06:13:23;4.50;;;3.37;;
8594;SDS011;4335;48.860;9.198;2024-03-06T06:15:57;4.83;;;4.30;;
8594;SDS011;4335;48.860;9.198;2024-03-06T06:18:28;6.80;;;3.90;;
8594;SDS011;4335;48.860;9.198;2024-03-06T06:20:59;6.73;;;4.70;;
8594;SDS011;4335;48.860;9.198;2024-03-06T06:23:27;4.90;;;3.87;;
8594;SDS011;4335;48.860;9.198;2024-03-06T06:25:54;4.67;;;3.93;;
8594;SDS011;4335;48.860;9.198;2024-03-06T06:28:22;8.43;;;5.40;;
8594;SDS011;4335;48.860;9.198;2024-03-06T06:30:49;5.70;;;3.93;;
8594;SDS011;4335;48.860;9.198;2024-03-06T06:33:19;5.30;;;4.10;;
8594;SDS011;4335;48.860;9.198;2024-03-06T06:35:50;5.50;;;3.97;;
8594;SDS011;4335;48.860;9.198;2024-03-06T06:38:19;6.00;;;4.20;;
8594;SDS011;4335;48.860;9.198;2024-03-06T06:40:46;5.30;;;4.10;;
8594;SDS011;4335;48.860;9.198;2024-03-06T06:43:18;7.10;;;4.50;;
8594;SDS011;4335;48.860;9.198;2024-03-06T06:45:46;6.47;;;4.60;;
8594;SDS011;4335;48.860;9.198;2024-03-06T06:48:16;4.13;;;3.47;;
8594;SDS011;4335;48.860;9.198;2024-03-06T06:50:46;4.23;;;3.67;;
8594;SDS011;4335;48.860;9.198;2024-03-06T06:53:13;8.93;;;4.00;;
8594;SDS011;4335;48.860;9.198;2024-03-06T06:55:44;7.87;;;3.57;;
8594;SDS011;4335;48.860;9.198;2024-03-06T06:58:14;6.23;;;4.50;;
8594;SDS011;4335;48.860;9.198;2024-03-06T07:00:41;6.33;;;4.53;;
8594;SDS011;4335;48.860;9.198;2024-03-06T07:03:09;5.87;;;4.70;;
8594;SDS011;4335;48.860;9.198;2024-03-06T07:05:38;4.70;;;4.20;;
8594;SDS011;4335;48.860;9.198;2024-03-06T07:08:07;5.47;;;4.20;;
8594;SDS011;4335;48.860;9.198;2024-03-06T07:10:36;5.27;;;3.83;;
8594;SDS011;4335;48.860;9.198;2024-03-06T07:13:04;5.47;;;4.23;;
8594;SDS011;4335;48.860;9.198;2024-03-06T07:15:31;6.27;;;3.77;;
8594;SDS011;4335;48.860;9.198;2024-03-06T07:17:59;4.57;;;4.00;;
8594;SDS011;4335;48.860;9.198;2024-03-06T07:20:26;8.03;;;4.50;;
8594;SDS011;4335;48.860;9.198;2024-03-06T07:22:58;8.70;;;4.43;;
8594;SDS011;4335;48.860;9.198;2024-03-06T07:25:28;4.90;;;4.30;;
8594;SDS011;4335;48.860;9.198;2024-03-06T07:27:55;6.23;;;4.40;;
8594;SDS011;4335;48.860;9.198;2024-03-06T07:30:26;5.17;;;4.00;;
8594;SDS011;4335;48.860;9.198;2024-03-06T07:32:57;7.90;;;4.07;;
8594;SDS011;4335;48.860;9.198;2024-03-06T07:35:24;5.07;;;4.33;;
8594;SDS011;4335;48.860;9.198;2024-03-06T07:37:52;9.27;;;4.67;;
8594;SDS011;4335;48.860;9.198;2024-03-06T07:40:31;7.63;;;4.23;;
8594;SDS011;4335;48.860;9.198;2024-03-06T07:42:58;4.67;;;3.60;;
8594;SDS011;4335;48.860;9.198;2024-03-06T07:45:34;6.90;;;4.30;;
8594;SDS011;4335;48.860;9.198;2024-03-06T07:48:05;5.43;;;4.37;;
8594;SDS011;4335;48.860;9.198;2024-03-06T07:50:35;6.50;;;4.50;;
8594;SDS011;4335;48.860;9.198;2024-03-06T07:53:05;8.10;;;4.90;;
8594;SDS011;4335;48.860;9.198;2024-03-06T07:55:40;8.27;;;4.63;;
8594;SDS011;4335;48.860;9.198;2024-03-06T07:58:07;7.77;;;5.77;;
8594;SDS011;4335;48.860;9.198;2024-03-06T08:00:41;6.63;;;4.90;;
8594;SDS011;4335;48.860;9.198;2024-03-06T08:03:08;5.90;;;5.00;;
8594;SDS011;4335;48.860;9.198;2024-03-06T08:05:41;7.27;;;6.00;;
8594;SDS011;4335;48.860;9.198;2024-03-06T08:08:10;5.13;;;4.63;;
8594;SDS011;4335;48.860;9.198;2024-03-06T08:10:37;7.80;;;4.70;;
8594;SDS011;4335;48.860;9.198;2024-03-06T08:13:10;6.77;;;4.53;;
8594;SDS011;4335;48.860;9.198;2024-03-06T08:15:37;7.43;;;4.73;;
8594;SDS011;4335;48.860;9.198;2024-03-06T08:18:05;6.03;;;3.83;;
8594;SDS011;4335;48.860;9.198;2024-03-06T08:20:33;7.73;;;4.40;;
8594;SDS011;4335;48.860;9.198;2024-03-06T08:23:01;6.50;;;4.70;;
8594;SDS011;4335;48.860;9.198;2024-03-06T08:25:28;5.07;;;3.90;;
8594;SDS011;4335;48.860;9.198;2024-03-06T08:27:59;4.70;;;4.13;;
8594;SDS011;4335;48.860;9.198;2024-03-06T08:30:28;8.07;;;3.90;;
8594;SDS011;4335;48.860;9.198;2024-03-06T08:33:02;7.77;;;4.43;;
8594;SDS011;4335;48.860;9.198;2024-03-06T08:35:30;5.43;;;4.90;;
8594;SDS011;4335;48.860;9.198;2024-03-06T08:37:57;4.37;;;3.97;;
8594;SDS011;4335;48.860;9.198;2024-03-06T08:40:29;4.53;;;4.13;;
8594;SDS011;4335;48.860;9.198;2024-03-06T08:42:56;6.23;;;4.43;;
8594;SDS011;4335;48.860;9.198;2024-03-06T08:45:27;6.10;;;3.80;;
8594;SDS011;4335;48.860;9.198;2024-03-06T08:47:55;6.60;;;4.20;;
8594;SDS011;4335;48.860;9.198;2024-03-06T08:50:22;4.70;;;4.20;;
8594;SDS011;4335;48.860;9.198;2024-03-06T08:52:50;6.07;;;4.57;;
8594;SDS011;4335;48.860;9.198;2024-03-06T08:55:21;5.37;;;4.43;;
8594;SDS011;4335;48.860;9.198;2024-03-06T08:57:51;6.37;;;4.63;;
8594;SDS011;4335;48.860;9.198;2024-03-06T09:00:21;5.27;;;4.60;;
8594;SDS011;4335;48.860;9.198;2024-03-06T09:03:02;5.73;;;4.30;;
8594;SDS011;4335;48.860;9.198;2024-03-06T09:05:30;7.57;;;5.00;;
8594;SDS011;4335;48.860;9.198;2024-03-06T09:08:01;5.27;;;4.73;;
8594;SDS011;4335;48.860;9.198;2024-03-06T09:10:34;6.23;;;4.93;;
8594;SDS011;4335;48.860;9.198;2024-03-06T09:13:02;7.07;;;6.03;;
8594;SDS011;4335;48.860;9.198;2024-03-06T09:15:32;6.43;;;5.60;;
8594;SDS011;4335;48.860;9.198;2024-03-06T09:18:04;5.60;;;5.07;;
8594;SDS011;4335;48.860;9.198;2024-03-06T09:20:32;7.60;;;5.60;;
8594;SDS011;4335;48.860;9.198;2024-03-06T09:22:59;7.43;;;5.37;;
8594;SDS011;4335;48.860;9.198;2024-03-06T09:25:31;6.33;;;5.70;;
8594;SDS011;4335;48.860;9.198;2024-03-06T09:27:58;6.73;;;5.50;;
8594;SDS011;4335;48.860;9.198;2024-03-06T09:30:29;6.20;;;5.37;;
8594;SDS011;4335;48.860;9.198;2024-03-06T09:32:57;7.40;;;4.57;;
8594;SDS011;4335;48.860;9.198;2024-03-06T09:35:32;5.30;;;4.47;;
8594;SDS011;4335;48.860;9.198;2024-03-06T09:38:02;7.33;;;6.30;;
8594;SDS011;4335;48.860;9.198;2024-03-06T09:40:30;5.87;;;5.30;;
8594;SDS011;4335;48.860;9.198;2024-03-06T09:42:57;5.70;;;5.10;;
8594;SDS011;4335;48.860;9.198;2024-03-06T09:45:25;6.30;;;5.47;;
8594;SDS011;4335;48.860;9.198;2024-03-06T09:47:54;7.30;;;5.17;;
8594;SDS011;4335;48.860;9.198;2024-03-06T09:50:32;7.23;;;5.90;;
8594;SDS011;4335;48.860;9.198;2024-03-06T09:53:06;7.93;;;7.17;;
8594;SDS011;4335;48.860;9.198;2024-03-06T09:55:40;7.60;;;6.37;;
8594;SDS011;4335;48.860;9.198;2024-03-06T09:58:08;9.27;;;7.00;;
8594;SDS011;4335;48.860;9.198;2024-03-06T10:00:39;8.60;;;7.27;;
8594;SDS011;4335;48.860;9.198;2024-03-06T10:03:06;7.60;;;6.90;;
8594;SDS011;4335;48.860;9.198;2024-03-06T10:05:39;11.77;;;7.90;;
8594;SDS011;4335;48.860;9.198;2024-03-06T10:08:13;8.63;;;7.73;;
8594;SDS011;4335;48.860;9.198;2024-03-06T10:10:48;11.53;;;8.00;;
8594;SDS011;4335;48.860;9.198;2024-03-06T10:13:16;9.23;;;8.03;;
8594;SDS011;4335;48.860;9.198;2024-03-06T10:15:54;9.67;;;8.77;;
8594;SDS011;4335;48.860;9.198;2024-03-06T10:18:27;11.27;;;9.00;;
8594;SDS011;4335;48.860;9.198;2024-03-06T10:20:59;9.27;;;8.37;;
8594;SDS011;4335;48.860;9.198;2024-03-06T10:23:31;10.23;;;8.67;;
8594;SDS011;4335;48.860;9.198;2024-03-06T10:26:05;10.33;;;9.03;;
8594;SDS011;4335;48.860;9.198;2024-03-06T10:28:50;13.67;;;9.37;;
8594;SDS011;4335;48.860;9.198;2024-03-06T10:31:26;11.57;;;9.33;;
8594;SDS011;4335;48.860;9.198;2024-03-06T10:33:54;10.83;;;9.83;;
8594;SDS011;4335;48.860;9.198;2024-03-06T10:36:27;13.63;;;9.40;;
8594;SDS011;4335;48.860;9.198;2024-03-06T10:39:01;12.87;;;10.43;;
8594;SDS011;4335;48.860;9.198;2024-03-06T10:41:35;12.73;;;10.43;;
8594;SDS011;4335;48.860;9.198;2024-03-06T10:44:05;12.60;;;10.67;;
8594;SDS011;4335;48.860;9.198;2024-03-06T10:46:38;11.53;;;9.93;;
8594;SDS011;4335;48.860;9.198;2024-03-06T10:49:09;13.50;;;11.17;;
8594;SDS011;4335;48.860;9.198;2024-03-06T10:51:39;12.70;;;11.13;;
8594;SDS011;4335;48.860;9.198;2024-03-06T10:54:08;16.13;;;11.47;;
8594;SDS011;4335;48.860;9.198;2024-03-06T10:56:38;15.23;;;12.17;;
8594;SDS011;4335;48.860;9.198;2024-03-06T10:59:08;14.97;;;13.40;;
8594;SDS011;4335;48.860;9.198;2024-03-06T11:01:38;14.83;;;13.23;;
8594;SDS011;4335;48.860;9.198;2024-03-06T11:04:09;13.70;;;12.30;;
8594;SDS011;4335;48.860;9.198;2024-03-06T11:06:42;15.23;;;12.90;;
8594;SDS011;4335;48.860;9.198;2024-03-06T11:09:10;18.00;;;13.60;;
8594;SDS011;4335;48.860;9.198;2024-03-06T11:11:47;15.10;;;13.40;;
8594;SDS011;4335;48.860;9.198;2024-03-06T11:14:16;16.13;;;13.30;;
8594;SDS011;4335;48.860;9.198;2024-03-06T11:17:01;15.90;;;13.33;;
8594;SDS011;4335;48.860;9.198;2024-03-06T11:19:29;16.13;;;12.73;;
8594;SDS011;4335;48.860;9.198;2024-03-06T11:21:59;15.67;;;13.63;;
8594;SDS011;4335;48.860;9.198;2024-03-06T11:24:35;17.50;;;14.97;;
8594;SDS011;4335;48.860;9.198;2024-03-06T11:27:04;16.97;;;14.53;;
8594;SDS011;4335;48.860;9.198;2024-03-06T11:33:04;18.67;;;14.30;;
8594;SDS011;4335;48.860;9.198;2024-03-06T11:35:40;15.87;;;13.57;;
8594;SDS011;4335;48.860;9.198;2024-03-06T11:38:11;17.43;;;13.53;;
8594;SDS011;4335;48.860;9.198;2024-03-06T11:40:42;17.50;;;14.33;;
8594;SDS011;4335;48.860;9.198;2024-03-06T11:43:22;18.30;;;14.53;;
8594;SDS011;4335;48.860;9.198;2024-03-06T11:46:07;16.87;;;13.27;;
8594;SDS011;4335;48.860;9.198;2024-03-06T11:48:38;17.37;;;12.97;;
8594;SDS011;4335;48.860;9.198;2024-03-06T11:51:12;17.77;;;13.87;;
8594;SDS011;4335;48.860;9.198;2024-03-06T11:53:49;18.87;;;14.07;;
8594;SDS011;4335;48.860;9.198;2024-03-06T11:56:19;15.73;;;14.00;;
8594;SDS011;4335;48.860;9.198;2024-03-06T11:58:53;15.87;;;12.63;;
8594;SDS011;4335;48.860;9.198;2024-03-06T12:01:20;15.47;;;13.23;;
8594;SDS011;4335;48.860;9.198;2024-03-06T12:03:48;15.37;;;12.60;;
8594;SDS011;4335;48.860;9.198;2024-03-06T12:06:18;16.43;;;13.17;;
8594;SDS011;4335;48.860;9.198;2024-03-06T12:08:49;15.37;;;12.57;;
8594;SDS011;4335;48.860;9.198;2024-03-06T12:11:19;16.63;;;13.17;;
8594;SDS011;4335;48.860;9.198;2024-03-06T12:13:53;19.13;;;13.00;;
8594;SDS011;4335;48.860;9.198;2024-03-06T12:16:23;14.73;;;13.20;;
8594;SDS011;4335;48.860;9.198;2024-03-06T12:18:54;15.90;;;12.50;;
8594;SDS011;4335;48.860;9.198;2024-03-06T12:21:23;13.80;;;12.40;;
8594;SDS011;4335;48.860;9.198;2024-03-06T12:24:05;15.17;;;12.93;;
8594;SDS011;4335;48.860;9.198;2024-03-06T12:26:34;14.67;;;12.73;;
8594;SDS011;4335;48.860;9.198;2024-03-06T12:29:06;16.40;;;12.43;;
8594;SDS011;4335;48.860;9.198;2024-03-06T12:31:38;14.90;;;12.70;;
8594;SDS011;4335;48.860;9.198;2024-03-06T12:34:05;13.47;;;11.93;;
8594;SDS011;4335;48.860;9.198;2024-03-06T12:36:34;16.60;;;12.93;;
8594;SDS011;4335;48.860;9.198;2024-03-06T12:39:06;16.83;;;12.40;;
8594;SDS011;4335;48.860;9.198;2024-03-06T12:41:38;17.13;;;12.70;;
8594;SDS011;4335;48.860;9.198;2024-03-06T12:44:05;13.77;;;12.40;;
8594;SDS011;4335;48.860;9.198;2024-03-06T12:46:34;17.40;;;13.40;;
8594;SDS011;4335;48.860;9.198;2024-03-06T12:49:07;16.73;;;14.77;;
8594;SDS011;4335;48.860;9.198;2024-03-06T12:51:34;16.43;;;13.53;;
8594;SDS011;4335;48.860;9.198;2024-03-06T12:54:05;19.37;;;14.70;;
8594;SDS011;4335;48.860;9.198;2024-03-06T12:56:40;16.77;;;13.90;;
8594;SDS011;4335;48.860;9.198;2024-03-06T12:59:08;16.70;;;14.27;;
8594;SDS011;4335;48.860;9.198;2024-03-06T13:01:38;17.83;;;15.33;;
8594;SDS011;4335;48.860;9.198;2024-03-06T13:04:09;18.57;;;16.30;;
8594;SDS011;4335;48.860;9.198;2024-03-06T13:06:36;22.73;;;18.03;;
8594;SDS011;4335;48.860;9.198;2024-03-06T13:09:07;17.90;;;16.00;;
8594;SDS011;4335;48.860;9.198;2024-03-06T13:11:34;19.10;;;16.63;;
8594;SDS011;4335;48.860;9.198;2024-03-06T13:14:02;18.27;;;15.83;;
8594;SDS011;4335;48.860;9.198;2024-03-06T13:16:29;18.43;;;15.90;;
8594;SDS011;4335;48.860;9.198;2024-03-06T13:18:57;18.30;;;16.30;;
8594;SDS011;4335;48.860;9.198;2024-03-06T13:21:25;19.17;;;16.17;;
8594;SDS011;4335;48.860;9.198;2024-03-06T13:23:53;18.50;;;15.47;;
8594;SDS011;4335;48.860;9.198;2024-03-06T13:26:25;18.53;;;15.60;;
8594;SDS011;4335;48.860;9.198;2024-03-06T13:28:53;18.57;;;16.57;;
8594;SDS011;4335;48.860;9.198;2024-03-06T13:31:20;18.97;;;16.27;;
8594;SDS011;4335;48.860;9.198;2024-03-06T13:33:48;18.27;;;16.30;;
8594;SDS011;4335;48.860;9.198;2024-03-06T13:36:24;17.07;;;14.97;;
8594;SDS011;4335;48.860;9.198;2024-03-06T13:38:51;15.90;;;14.23;;
8594;SDS011;4335;48.860;9.198;2024-03-06T13:41:19;17.23;;;14.97;;
8594;SDS011;4335;48.860;9.198;2024-03-06T13:43:48;18.17;;;16.20;;
8594;SDS011;4335;48.860;9.198;2024-03-06T13:46:15;17.50;;;14.93;;
8594;SDS011;4335;48.860;9.198;2024-03-06T13:48:46;16.90;;;14.53;;
8594;SDS011;4335;48.860;9.198;2024-03-06T13:51:17;17.93;;;15.43;;
8594;SDS011;4335;48.860;9.198;2024-03-06T13:53:44;19.17;;;15.63;;
8594;SDS011;4335;48.860;9.198;2024-03-06T13:56:12;21.20;;;16.30;;
8594;SDS011;4335;48.860;9.198;2024-03-06T13:58:42;19.03;;;16.00;;
8594;SDS011;4335;48.860;9.198;2024-03-06T14:01:20;19.30;;;15.93;;
8594;SDS011;4335;48.860;9.198;2024-03-06T14:03:48;18.73;;;15.33;;
8594;SDS011;4335;48.860;9.198;2024-03-06T14:06:15;17.67;;;15.77;;
8594;SDS011;4335;48.860;9.198;2024-03-06T14:08:42;19.67;;;16.40;;
8594;SDS011;4335;48.860;9.198;2024-03-06T14:11:10;17.83;;;15.63;;
8594;SDS011;4335;48.860;9.198;2024-03-06T14:13:38;18.40;;;16.43;;
8594;SDS011;4335;48.860;9.198;2024-03-06T14:16:05;18.13;;;16.13;;
8594;SDS011;4335;48.860;9.198;2024-03-06T14:18:40;19.43;;;16.40;;
8594;SDS011;4335;48.860;9.198;2024-03-06T14:21:07;19.80;;;16.67;;
8594;SDS011;4335;48.860;9.198;2024-03-06T14:23:35;20.33;;;16.43;;
8594;SDS011;4335;48.860;9.198;2024-03-06T14:26:09;19.43;;;16.60;;
8594;SDS011;4335;48.860;9.198;2024-03-06T14:28:36;18.87;;;15.63;;
8594;SDS011;4335;48.860;9.198;2024-03-06T14:31:05;18.77;;;15.33;;
8594;SDS011;4335;48.860;9.198;2024-03-06T14:33:32;18.33;;;15.90;;
8594;SDS011;4335;48.860;9.198;2024-03-06T14:36:08;21.43;;;16.70;;
8594;SDS011;4335;48.860;9.198;2024-03-06T14:38:38;19.13;;;15.73;;
8594;SDS011;4335;48.860;9.198;2024-03-06T14:41:05;18.73;;;15.00;;
8594;SDS011;4335;48.860;9.198;2024-03-06T14:43:34;17.33;;;14.70;;
8594;SDS011;4335;48.860;9.198;2024-03-06T14:46:03;22.30;;;16.20;;
8594;SDS011;4335;48.860;9.198;2024-03-06T14:48:31;20.63;;;14.97;;
8594;SDS011;4335;48.860;9.198;2024-03-06T14:51:01;19.83;;;16.67;;
8594;SDS011;4335;48.860;9.198;2024-03-06T14:53:30;20.67;;;16.57;;
8594;SDS011;4335;48.860;9.198;2024-03-06T14:56:04;21.27;;;16.10;;
8594;SDS011;4335;48.860;9.198;2024-03-06T14:58:37;23.40;;;17.27;;
8594;SDS011;4335;48.860;9.198;2024-03-06T15:01:04;20.63;;;16.13;;
8594;SDS011;4335;48.860;9.198;2024-03-06T15:03:32;20.43;;;16.10;;
8594;SDS011;4335;48.860;9.198;2024-03-06T15:06:00;23.57;;;17.13;;
8594;SDS011;4335;48.860;9.198;2024-03-06T15:08:32;24.27;;;16.83;;
8594;SDS011;4335;48.860;9.198;2024-03-06T15:11:01;18.70;;;16.23;;
8594;SDS011;4335;48.860;9.198;2024-03-06T15:13:28;22.77;;;17.27;;
8594;SDS011;4335;48.860;9.198;2024-03-06T15:15:58;26.23;;;18.67;;
8594;SDS011;4335;48.860;9.198;2024-03-06T15:18:26;23.77;;;17.17;;
8594;SDS011;4335;48.860;9.198;2024-03-06T15:20:54;22.10;;;16.80;;
8594;SDS011;4335;48.860;9.198;2024-03-06T15:23:21;23.13;;;17.13;;
8594;SDS011;4335;48.860;9.198;2024-03-06T15:25:52;22.40;;;18.50;;